createdAt,value
2019-01-18T00:01:19.933Z,6.00
2019-01-18T00:03:47.912Z,9.28
2019-01-18T00:06:16.058Z,11.22
2019-01-18T00:08:44.256Z,11.57
2019-01-18T00:11:12.408Z,13.30
2019-01-18T00:13:42.551Z,15.55
2019-01-18T00:16:10.504Z,16.02
2019-01-18T00:18:38.523Z,16.97
2019-01-18T00:21:06.664Z,16.20
2019-01-18T00:23:34.617Z,17.05
2019-01-18T00:26:04.379Z,15.95
2019-01-18T00:28:32.518Z,15.80
2019-01-18T00:31:00.465Z,15.68
2019-01-18T00:33:30.591Z,14.07
2019-01-18T00:35:58.248Z,13.85
2019-01-18T00:38:26.214Z,12.43
2019-01-18T00:40:54.412Z,10.53
2019-01-18T00:43:22.363Z,10.25
2019-01-18T00:45:50.358Z,6.65
2019-01-18T00:48:20.463Z,6.45
2019-01-18T00:50:48.164Z,5.20
2019-01-18T00:53:16.205Z,5.65
2019-01-18T00:55:45.425Z,4.78
2019-01-18T00:58:15.241Z,5.00
2019-01-18T01:00:42.984Z,3.55
2019-01-18T01:03:10.949Z,3.50
2019-01-18T01:05:38.923Z,3.00
2019-01-18T01:08:08.783Z,3.00
2019-01-18T01:10:36.574Z,2.70
2019-01-18T01:13:05.539Z,3.50
2019-01-18T01:15:35.328Z,2.95
2019-01-18T01:18:03.579Z,4.25
2019-01-18T01:20:31.549Z,3.15
2019-01-18T01:22:59.620Z,4.17
2019-01-18T01:25:27.799Z,4.00
2019-01-18T01:27:55.763Z,3.75
2019-01-18T01:30:23.936Z,4.03
2019-01-18T01:32:52.009Z,3.70
2019-01-18T01:35:21.354Z,3.75
2019-01-18T01:37:49.383Z,3.42
2019-01-18T01:40:17.763Z,3.60
2019-01-18T01:42:47.422Z,3.45
2019-01-18T01:45:15.546Z,3.12
2019-01-18T01:47:43.619Z,3.12
2019-01-18T01:50:11.891Z,3.30
2019-01-18T01:52:39.963Z,4.85
2019-01-18T01:55:08.038Z,5.60
2019-01-18T01:57:36.108Z,4.97
2019-01-18T02:00:04.082Z,4.20
2019-01-18T02:02:32.148Z,3.50
2019-01-18T02:05:00.427Z,3.65
2019-01-18T02:07:28.498Z,3.77
2019-01-18T02:09:56.568Z,4.17
2019-01-18T02:12:24.626Z,4.15
2019-01-18T02:14:52.712Z,4.15
2019-01-18T02:17:22.404Z,4.03
2019-01-18T02:19:50.497Z,4.55
2019-01-18T02:22:18.441Z,4.55
2019-01-18T02:24:46.920Z,3.52
2019-01-18T02:27:15.120Z,3.70
2019-01-18T02:29:43.190Z,3.92
2019-01-18T02:32:11.268Z,3.80
2019-01-18T02:34:39.313Z,3.55
2019-01-18T02:37:07.420Z,3.72
2019-01-18T02:39:35.378Z,3.33
2019-01-18T02:42:05.073Z,3.42
2019-01-18T02:44:34.780Z,3.12
2019-01-18T02:47:02.767Z,3.10
2019-01-18T02:49:30.736Z,3.10
2019-01-18T02:51:59.839Z,2.50
2019-01-18T02:54:28.786Z,3.00
2019-01-18T02:56:56.795Z,2.60
2019-01-18T02:59:24.772Z,2.50
2019-01-18T03:01:52.734Z,2.65
2019-01-18T03:04:27.379Z,2.90
2019-01-18T03:06:55.434Z,2.37
2019-01-18T03:09:23.506Z,2.42
2019-01-18T03:11:51.552Z,2.40
2019-01-18T03:14:19.852Z,2.50
2019-01-18T03:16:47.911Z,2.70
2019-01-18T03:19:16.200Z,2.80
2019-01-18T03:21:45.398Z,2.83
2019-01-18T03:24:13.456Z,3.00
2019-01-18T03:26:41.441Z,3.08
2019-01-18T03:29:09.512Z,3.20
2019-01-18T03:31:37.457Z,2.98
2019-01-18T03:34:05.454Z,3.05
2019-01-18T03:36:33.703Z,2.90
2019-01-18T03:39:01.680Z,3.20
2019-01-18T03:41:29.767Z,3.05
2019-01-18T03:43:57.942Z,3.27
2019-01-18T03:46:25.881Z,3.25
2019-01-18T03:48:53.981Z,3.05
2019-01-18T03:51:21.951Z,3.40
2019-01-18T03:53:49.920Z,2.25
2019-01-18T03:56:19.593Z,2.90
2019-01-18T03:58:49.406Z,3.30
2019-01-18T04:01:17.415Z,3.02
2019-01-18T04:03:47.153Z,3.27
2019-01-18T04:06:16.200Z,3.15
2019-01-18T04:08:45.145Z,2.90
2019-01-18T04:11:13.182Z,3.10
2019-01-18T04:13:41.155Z,3.20
2019-01-18T04:16:09.121Z,3.17
2019-01-18T04:18:37.194Z,3.10
2019-01-18T04:21:05.164Z,3.00
2019-01-18T04:23:33.236Z,2.90
2019-01-18T04:26:01.204Z,2.80
2019-01-18T04:28:29.276Z,2.90
2019-01-18T04:30:57.243Z,2.85
2019-01-18T04:33:25.525Z,2.65
2019-01-18T04:35:53.465Z,2.83
2019-01-18T04:38:21.462Z,2.90
2019-01-18T04:40:49.532Z,3.20
2019-01-18T04:43:17.479Z,2.70
2019-01-18T04:45:45.581Z,3.17
2019-01-18T04:48:13.514Z,2.50
2019-01-18T04:50:41.485Z,2.90
2019-01-18T04:53:09.486Z,2.95
2019-01-18T04:55:37.436Z,3.05
2019-01-18T04:58:05.392Z,2.70
2019-01-18T05:00:40.181Z,3.00
2019-01-18T05:03:02.971Z,3.10
2019-01-18T05:05:30.958Z,3.60
2019-01-18T05:08:00.694Z,3.50
2019-01-18T05:10:28.750Z,3.17
2019-01-18T05:12:56.690Z,3.60
2019-01-18T05:15:24.690Z,3.52
2019-01-18T05:17:52.658Z,3.35
2019-01-18T05:20:20.732Z,3.33
2019-01-18T05:22:48.706Z,4.00
2019-01-18T05:25:17.686Z,3.58
2019-01-18T05:27:45.640Z,3.40
2019-01-18T05:30:13.602Z,4.00
2019-01-18T05:32:41.705Z,3.62
2019-01-18T05:35:09.775Z,3.50
2019-01-18T05:37:37.734Z,3.75
2019-01-18T05:40:05.712Z,3.65
2019-01-18T05:42:33.888Z,3.67
2019-01-18T05:45:01.965Z,3.50
2019-01-18T05:47:29.901Z,3.60
2019-01-18T05:49:57.899Z,4.00
2019-01-18T05:52:26.353Z,4.40
2019-01-18T05:54:56.242Z,4.78
2019-01-18T05:57:25.836Z,4.83
2019-01-18T05:59:55.535Z,4.58
2019-01-18T06:02:23.479Z,5.05
2019-01-18T06:04:52.056Z,5.40
2019-01-18T06:07:20.139Z,5.67
2019-01-18T06:09:48.107Z,5.30
2019-01-18T06:12:16.149Z,5.40
2019-01-18T06:14:44.126Z,5.85
2019-01-18T06:17:13.091Z,5.37
2019-01-18T06:19:41.114Z,6.00
2019-01-18T06:22:09.287Z,5.60
2019-01-18T06:24:37.258Z,6.50
2019-01-18T06:27:05.306Z,6.03
2019-01-18T06:29:33.403Z,5.95
2019-01-18T06:32:01.342Z,5.35
2019-01-18T06:34:29.412Z,5.30
2019-01-18T06:36:58.433Z,5.90
2019-01-18T06:39:26.373Z,6.62
2019-01-18T06:41:55.377Z,6.35
2019-01-18T06:44:23.334Z,6.90
2019-01-18T06:46:51.765Z,6.25
2019-01-18T06:49:20.325Z,7.35
2019-01-18T06:51:48.398Z,7.72
2019-01-18T06:54:16.471Z,6.67
2019-01-18T06:56:44.541Z,6.25
2019-01-18T06:59:12.613Z,7.08
2019-01-18T07:01:40.563Z,7.35
2019-01-18T07:04:08.751Z,7.62
2019-01-18T07:06:36.835Z,6.28
2019-01-18T07:09:05.675Z,7.75
2019-01-18T07:11:34.764Z,7.53
2019-01-18T07:14:02.785Z,7.10
2019-01-18T07:16:31.921Z,7.00
2019-01-18T07:19:00.815Z,8.00
2019-01-18T07:21:28.851Z,9.45
2019-01-18T07:23:56.800Z,8.40
2019-01-18T07:26:24.757Z,9.13
2019-01-18T07:28:52.888Z,8.63
2019-01-18T07:31:20.824Z,9.23
2019-01-18T07:33:49.336Z,8.33
2019-01-18T07:36:17.256Z,8.80
2019-01-18T07:38:45.222Z,9.85
2019-01-18T07:41:13.418Z,8.90
2019-01-18T07:43:41.490Z,8.70
2019-01-18T07:46:09.461Z,8.65
2019-01-18T07:48:37.429Z,9.30
2019-01-18T07:51:05.370Z,8.45
2019-01-18T07:53:33.784Z,9.20
2019-01-18T07:56:01.937Z,8.85
2019-01-18T07:58:30.331Z,9.03
2019-01-18T08:00:58.375Z,10.82
2019-01-18T08:03:27.352Z,11.57
2019-01-18T08:05:55.673Z,10.90
2019-01-18T08:08:23.745Z,12.18
2019-01-18T08:10:51.790Z,11.97
2019-01-18T08:13:21.513Z,12.88
2019-01-18T08:15:49.374Z,12.20
2019-01-18T08:18:17.979Z,12.15
2019-01-18T08:20:46.356Z,11.93
2019-01-18T08:23:14.327Z,11.55
2019-01-18T08:25:42.274Z,11.53
2019-01-18T08:28:10.265Z,11.83
2019-01-18T08:30:38.214Z,11.28
2019-01-18T08:33:06.307Z,11.33
2019-01-18T08:35:34.568Z,9.38
2019-01-18T08:38:03.517Z,9.35
2019-01-18T08:40:31.691Z,11.33
2019-01-18T08:42:59.829Z,12.70
2019-01-18T08:45:27.810Z,14.55
2019-01-18T08:47:55.873Z,13.30
2019-01-18T08:50:24.041Z,13.88
2019-01-18T08:52:52.965Z,15.38
2019-01-18T08:55:21.002Z,20.00
2019-01-18T08:57:48.958Z,21.12
2019-01-18T09:00:16.920Z,17.60
2019-01-18T09:02:45.013Z,12.37
2019-01-18T09:05:12.982Z,14.07
2019-01-18T09:07:40.931Z,13.22
2019-01-18T09:10:09.329Z,9.93
2019-01-18T09:12:37.300Z,11.55
2019-01-18T09:15:05.269Z,9.85
2019-01-18T09:17:34.779Z,10.43
2019-01-18T09:20:02.821Z,9.40
2019-01-18T09:22:30.920Z,12.50
2019-01-18T09:24:58.886Z,10.33
2019-01-18T09:27:26.960Z,12.50
2019-01-18T09:29:55.035Z,12.88
2019-01-18T09:32:24.928Z,14.40
2019-01-18T09:34:52.893Z,14.60
2019-01-18T09:37:20.884Z,17.35
2019-01-18T09:39:48.859Z,16.02
2019-01-18T09:42:16.799Z,15.15
2019-01-18T09:44:44.999Z,15.18
2019-01-18T09:47:13.385Z,15.13
2019-01-18T09:49:42.805Z,13.72
2019-01-18T09:52:11.057Z,13.25
2019-01-18T09:54:39.027Z,13.48
2019-01-18T09:57:07.003Z,13.78
2019-01-18T09:59:35.479Z,13.58
2019-01-18T10:02:03.754Z,12.45
2019-01-18T10:04:31.722Z,13.18
2019-01-18T10:06:59.897Z,14.00
2019-01-18T10:09:27.857Z,14.47
2019-01-18T10:11:57.749Z,13.05
2019-01-18T10:14:25.547Z,14.10
2019-01-18T10:16:55.513Z,13.83
2019-01-18T10:19:23.430Z,13.65
2019-01-18T10:21:51.400Z,14.07
2019-01-18T10:24:19.368Z,13.68
2019-01-18T10:26:47.731Z,13.88
2019-01-18T10:29:17.290Z,13.85
2019-01-18T10:31:45.328Z,13.62
2019-01-18T10:34:13.588Z,12.93
2019-01-18T10:36:41.673Z,13.72
2019-01-18T10:39:10.594Z,12.45
2019-01-18T10:41:38.964Z,12.60
2019-01-18T10:44:07.015Z,14.20
2019-01-18T10:46:35.000Z,12.65
2019-01-18T10:49:03.572Z,13.48
2019-01-18T10:51:31.642Z,14.60
2019-01-18T10:53:59.593Z,14.95
2019-01-18T10:56:27.578Z,13.98
2019-01-18T10:58:55.625Z,15.50
2019-01-18T11:01:23.713Z,12.73
2019-01-18T11:03:53.013Z,12.63
2019-01-18T11:06:21.283Z,12.45
2019-01-18T11:08:49.456Z,12.37
2019-01-18T11:11:17.547Z,13.43
2019-01-18T11:13:45.595Z,12.70
2019-01-18T11:16:13.588Z,13.72
2019-01-18T11:18:41.528Z,13.10
2019-01-18T11:21:09.507Z,12.65
2019-01-18T11:23:37.503Z,13.53
2019-01-18T11:26:05.464Z,11.45
2019-01-18T11:28:33.417Z,12.93
2019-01-18T11:31:01.379Z,12.15
2019-01-18T11:33:29.348Z,13.00
2019-01-18T11:35:57.439Z,11.20
2019-01-18T11:38:25.421Z,12.23
2019-01-18T11:40:55.588Z,12.63
2019-01-18T11:43:23.280Z,13.98
2019-01-18T11:45:51.244Z,13.43
2019-01-18T11:48:19.341Z,14.30
2019-01-18T11:50:49.446Z,14.07
2019-01-18T11:53:17.711Z,13.60
2019-01-18T11:55:45.809Z,15.25
2019-01-18T11:58:14.166Z,12.15
2019-01-18T12:00:42.557Z,13.05
2019-01-18T12:03:10.518Z,13.20
2019-01-18T12:05:38.506Z,12.40
2019-01-18T12:08:06.792Z,12.55
2019-01-18T12:10:34.751Z,13.10
2019-01-18T12:13:02.728Z,12.30
2019-01-18T12:15:30.792Z,13.68
2019-01-18T12:17:59.019Z,16.25
2019-01-18T12:20:27.218Z,15.55
2019-01-18T12:22:55.229Z,15.68
2019-01-18T12:25:25.042Z,15.32
2019-01-18T12:27:52.894Z,14.58
2019-01-18T12:30:20.843Z,13.53
2019-01-18T12:32:48.934Z,13.80
2019-01-18T12:35:16.882Z,11.95
2019-01-18T12:37:44.873Z,11.97
2019-01-18T12:40:12.843Z,12.18
2019-01-18T12:42:41.120Z,10.88
2019-01-18T12:45:09.094Z,11.75
2019-01-18T12:47:37.347Z,9.23
2019-01-18T12:50:05.314Z,11.22
2019-01-18T12:52:34.998Z,10.35
2019-01-18T12:55:03.197Z,8.15
2019-01-18T12:57:31.293Z,9.45
2019-01-18T12:59:59.260Z,8.45
2019-01-18T13:02:27.333Z,9.35
2019-01-18T13:04:55.303Z,9.10
2019-01-18T13:07:23.449Z,8.45
2019-01-18T13:09:53.415Z,8.13
2019-01-18T13:12:21.425Z,7.93
2019-01-18T13:14:49.645Z,7.33
2019-01-18T13:17:17.711Z,8.25
2019-01-18T13:19:45.765Z,8.53
2019-01-18T13:22:13.732Z,7.90
2019-01-18T13:24:41.714Z,7.93
2019-01-18T13:27:09.871Z,8.40
2019-01-18T13:29:37.945Z,7.47
2019-01-18T13:32:05.919Z,9.47
2019-01-18T13:34:33.889Z,9.00
2019-01-18T13:37:02.077Z,7.87
2019-01-18T13:39:30.429Z,9.20
2019-01-18T13:41:59.876Z,8.60
2019-01-18T13:44:28.348Z,9.57
2019-01-18T13:46:56.774Z,8.80
2019-01-18T13:49:24.692Z,9.33
2019-01-18T13:51:52.637Z,10.05
2019-01-18T13:54:20.734Z,8.50
2019-01-18T13:56:48.673Z,8.88
2019-01-18T13:59:16.759Z,9.10
2019-01-18T14:01:44.678Z,9.53
2019-01-18T14:04:12.712Z,8.90
2019-01-18T14:06:40.683Z,8.68
2019-01-18T14:09:08.955Z,7.85
2019-01-18T14:11:36.929Z,9.25
2019-01-18T14:14:04.880Z,8.80
2019-01-18T14:16:34.073Z,8.60
2019-01-18T14:19:02.065Z,8.68
2019-01-18T14:21:30.032Z,8.65
2019-01-18T14:23:58.517Z,10.18
2019-01-18T14:26:26.485Z,9.53
2019-01-18T14:28:54.456Z,9.88
2019-01-18T14:31:22.628Z,12.40
2019-01-18T14:33:50.569Z,10.50
2019-01-18T14:36:18.649Z,10.53
2019-01-18T14:38:46.619Z,11.15
2019-01-18T14:41:15.787Z,10.45
2019-01-18T14:43:44.115Z,10.08
2019-01-18T14:46:12.086Z,10.13
2019-01-18T14:48:40.052Z,8.88
2019-01-18T14:51:08.257Z,7.70
2019-01-18T14:53:36.488Z,6.55
2019-01-18T14:56:04.474Z,6.92
2019-01-18T14:58:32.416Z,6.67
2019-01-18T15:01:00.515Z,6.65
2019-01-18T15:03:29.465Z,6.75
2019-01-18T15:05:59.484Z,6.90
2019-01-18T15:08:27.083Z,5.65
2019-01-18T15:10:57.044Z,5.62
2019-01-18T15:13:24.739Z,5.37
2019-01-18T15:15:52.939Z,5.45
2019-01-18T15:18:20.914Z,5.42
2019-01-18T15:20:49.056Z,4.75
2019-01-18T15:23:17.049Z,5.00
2019-01-18T15:25:44.991Z,5.25
2019-01-18T15:28:13.071Z,5.42
2019-01-18T15:30:41.062Z,5.10
2019-01-18T15:33:09.643Z,4.83
2019-01-18T15:35:37.920Z,4.95
2019-01-18T15:38:05.889Z,5.00
2019-01-18T15:40:34.968Z,5.30
2019-01-18T15:43:03.887Z,5.12
2019-01-18T15:45:31.925Z,5.70
2019-01-18T15:47:59.925Z,6.00
2019-01-18T15:50:27.896Z,4.85
2019-01-18T15:52:55.858Z,4.60
2019-01-18T15:55:24.006Z,5.40
2019-01-18T15:57:52.008Z,5.10
2019-01-18T16:00:19.949Z,5.60
2019-01-18T16:02:48.046Z,5.30
2019-01-18T16:05:17.838Z,5.40
2019-01-18T16:07:46.035Z,4.72
2019-01-18T16:10:14.203Z,4.55
2019-01-18T16:12:43.519Z,4.60
2019-01-18T16:15:11.551Z,4.53
2019-01-18T16:17:39.545Z,4.75
2019-01-18T16:20:07.604Z,4.60
2019-01-18T16:22:36.583Z,5.37
2019-01-18T16:25:07.240Z,5.60
2019-01-18T16:27:35.314Z,5.67
2019-01-18T16:30:03.271Z,4.75
2019-01-18T16:32:31.355Z,4.97
2019-01-18T16:34:59.528Z,4.78
2019-01-18T16:37:27.473Z,5.95
2019-01-18T16:39:55.669Z,5.20
2019-01-18T16:42:23.615Z,5.05
2019-01-18T16:44:51.715Z,4.95
2019-01-18T16:47:21.260Z,5.50
2019-01-18T16:49:49.602Z,5.10
2019-01-18T16:52:17.646Z,5.35
2019-01-18T16:54:47.261Z,4.05
2019-01-18T16:57:15.353Z,4.42
2019-01-18T16:59:43.425Z,4.12
2019-01-18T17:02:11.395Z,4.85
2019-01-18T17:04:39.360Z,5.28
2019-01-18T17:07:07.336Z,4.53
2019-01-18T17:09:35.402Z,4.10
2019-01-18T17:12:03.478Z,4.67
2019-01-18T17:14:31.444Z,4.00
2019-01-18T17:16:59.519Z,4.60
2019-01-18T17:19:27.590Z,4.45
2019-01-18T17:21:55.558Z,4.03
2019-01-18T17:24:23.832Z,4.58
2019-01-18T17:26:52.011Z,4.80
2019-01-18T17:29:19.983Z,4.50
2019-01-18T17:31:48.150Z,4.80
2019-01-18T17:34:16.426Z,4.35
2019-01-18T17:36:44.610Z,4.58
2019-01-18T17:39:12.575Z,4.65
2019-01-18T17:41:42.534Z,4.90
2019-01-18T17:44:10.429Z,4.62
2019-01-18T17:46:38.430Z,4.30
2019-01-18T17:49:06.399Z,5.30
2019-01-18T17:51:34.466Z,4.67
2019-01-18T17:54:04.294Z,5.35
2019-01-18T17:56:32.051Z,4.92
2019-01-18T17:59:00.014Z,5.20
2019-01-18T18:01:27.967Z,4.75
2019-01-18T18:03:56.273Z,5.28
2019-01-18T18:06:24.328Z,4.72
2019-01-18T18:08:52.301Z,5.10
2019-01-18T18:11:20.780Z,5.40
2019-01-18T18:13:49.166Z,6.97
2019-01-18T18:16:17.131Z,5.25
2019-01-18T18:18:46.689Z,5.70
2019-01-18T18:21:16.691Z,5.45
2019-01-18T18:23:48.204Z,4.28
2019-01-18T18:26:14.333Z,5.30
2019-01-18T18:28:43.371Z,4.70
2019-01-18T18:31:11.397Z,4.97
2019-01-18T18:33:39.469Z,4.33
2019-01-18T18:36:07.543Z,4.72
2019-01-18T18:38:35.614Z,4.30
2019-01-18T18:41:04.940Z,4.60
2019-01-18T18:43:33.165Z,4.20
2019-01-18T18:46:01.162Z,4.92
2019-01-18T18:48:30.095Z,4.53
2019-01-18T18:50:58.402Z,4.30
2019-01-18T18:53:26.509Z,4.47
2019-01-18T18:55:55.820Z,4.25
2019-01-18T18:58:24.387Z,4.60
2019-01-18T19:00:52.458Z,4.22
2019-01-18T19:03:21.745Z,4.20
2019-01-18T19:05:50.012Z,4.40
2019-01-18T19:08:18.186Z,4.33
2019-01-18T19:10:46.287Z,5.08
2019-01-18T19:13:14.323Z,5.15
2019-01-18T19:15:42.330Z,5.97
2019-01-18T19:18:11.381Z,6.80
2019-01-18T19:20:39.492Z,6.33
2019-01-18T19:23:07.459Z,4.67
2019-01-18T19:25:35.402Z,4.28
2019-01-18T19:28:03.393Z,4.40
2019-01-18T19:30:31.367Z,5.05
2019-01-18T19:32:59.427Z,4.45
2019-01-18T19:35:27.431Z,4.62
2019-01-18T19:37:57.206Z,4.72
2019-01-18T19:40:25.395Z,5.05
2019-01-18T19:42:53.569Z,5.28
2019-01-18T19:45:21.538Z,4.62
2019-01-18T19:47:49.610Z,4.22
2019-01-18T19:50:17.770Z,4.72
2019-01-18T19:52:45.860Z,6.80
2019-01-18T19:55:13.930Z,4.45
2019-01-18T19:57:41.981Z,4.53
2019-01-18T20:00:17.730Z,5.15
2019-01-18T20:02:45.721Z,5.35
2019-01-18T20:05:15.289Z,5.70
2019-01-18T20:07:43.408Z,5.50
2019-01-18T20:10:14.648Z,5.15
2019-01-18T20:12:42.722Z,5.20
2019-01-18T20:15:10.692Z,6.40
2019-01-18T20:17:38.626Z,4.75
2019-01-18T20:20:06.626Z,4.90
2019-01-18T20:22:35.723Z,5.30
2019-01-18T20:25:03.976Z,4.33
2019-01-18T20:27:32.045Z,5.65
2019-01-18T20:30:00.048Z,4.92
2019-01-18T20:32:28.217Z,4.50
2019-01-18T20:34:56.185Z,4.62
2019-01-18T20:37:25.890Z,4.78
2019-01-18T20:39:54.045Z,4.92
2019-01-18T20:42:22.014Z,5.70
2019-01-18T20:44:50.090Z,4.92
2019-01-18T20:47:18.082Z,5.67
2019-01-18T20:49:46.151Z,5.22
2019-01-18T20:52:14.098Z,4.95
2019-01-18T20:54:42.297Z,7.42
2019-01-18T20:57:10.266Z,5.67
2019-01-18T20:59:38.546Z,5.05
2019-01-18T21:02:07.975Z,6.62
2019-01-18T21:04:35.996Z,6.15
2019-01-18T21:07:04.093Z,5.00
2019-01-18T21:09:36.296Z,5.20
2019-01-18T21:12:05.333Z,5.60
2019-01-18T21:14:35.225Z,5.85
2019-01-18T21:17:03.204Z,5.47
2019-01-18T21:19:31.410Z,6.40
2019-01-18T21:21:59.463Z,6.37
2019-01-18T21:24:30.348Z,5.95
2019-01-18T21:26:58.997Z,5.83
2019-01-18T21:29:26.978Z,5.55
2019-01-18T21:31:55.072Z,6.58
2019-01-18T21:34:23.016Z,6.50
2019-01-18T21:36:50.967Z,5.90
2019-01-18T21:39:18.957Z,5.95
2019-01-18T21:41:48.362Z,6.00
2019-01-18T21:44:16.816Z,6.00
2019-01-18T21:46:44.910Z,6.10
2019-01-18T21:49:12.806Z,5.90
2019-01-18T21:51:41.467Z,6.15
2019-01-18T21:54:09.513Z,6.30
2019-01-18T21:56:37.513Z,6.40
2019-01-18T21:59:05.569Z,6.10
2019-01-18T22:01:33.751Z,6.45
2019-01-18T22:04:05.557Z,5.87
2019-01-18T22:06:35.559Z,5.92
2019-01-18T22:09:05.110Z,5.83
2019-01-18T22:11:33.186Z,6.42
2019-01-18T22:14:02.100Z,6.47
2019-01-18T22:16:30.249Z,6.42
2019-01-18T22:18:58.344Z,6.10
2019-01-18T22:21:26.419Z,6.15
2019-01-18T22:23:55.464Z,5.42
2019-01-18T22:26:31.855Z,6.90
2019-01-18T22:29:00.051Z,6.05
2019-01-18T22:31:28.224Z,6.30
2019-01-18T22:33:56.301Z,6.20
2019-01-18T22:36:24.243Z,7.28
2019-01-18T22:38:54.094Z,7.05
2019-01-18T22:41:24.182Z,6.60
2019-01-18T22:43:55.138Z,6.05
2019-01-18T22:46:23.515Z,5.78
2019-01-18T22:48:51.486Z,6.35
2019-01-18T22:51:19.428Z,5.97
2019-01-18T22:53:47.399Z,7.05
2019-01-18T22:56:17.254Z,6.58
2019-01-18T22:58:45.698Z,6.25
2019-01-18T23:01:17.377Z,6.25
2019-01-18T23:03:45.698Z,7.65
2019-01-18T23:06:13.798Z,6.30
2019-01-18T23:08:41.874Z,6.70
2019-01-18T23:11:11.448Z,5.97
2019-01-18T23:13:41.214Z,6.72
2019-01-18T23:16:09.708Z,6.40
2019-01-18T23:18:41.369Z,6.10
2019-01-18T23:21:09.499Z,6.37
2019-01-18T23:23:37.569Z,5.70
2019-01-18T23:26:07.765Z,5.00
2019-01-18T23:28:35.791Z,5.28
2019-01-18T23:31:05.346Z,4.97
2019-01-18T23:33:33.445Z,5.87
2019-01-18T23:36:01.439Z,5.42
2019-01-18T23:38:29.617Z,5.22
2019-01-18T23:40:58.638Z,4.97
2019-01-18T23:43:27.870Z,4.90
2019-01-18T23:45:55.875Z,5.53
2019-01-18T23:48:23.847Z,6.12
2019-01-18T23:50:52.121Z,5.15
2019-01-18T23:53:20.077Z,5.28
2019-01-18T23:55:50.196Z,5.03
2019-01-18T23:58:18.273Z,5.20
